createdAt,value
2023-02-24T00:00:32.503Z,10.42
2023-02-24T00:04:39.544Z,10.43
2023-02-24T00:08:42.252Z,10.38
2023-02-24T00:12:45.595Z,10.38
2023-02-24T00:16:47.871Z,10.35
2023-02-24T00:20:49.557Z,10.34
2023-02-24T00:24:53.670Z,10.31
2023-02-24T00:28:56.961Z,10.28
2023-02-24T00:33:01.221Z,10.31
2023-02-24T00:37:03.591Z,10.31
2023-02-24T00:41:12.444Z,10.34
2023-02-24T00:45:16.648Z,10.31
2023-02-24T00:49:20.685Z,10.26
2023-02-24T00:53:22.219Z,10.28
2023-02-24T00:57:23.747Z,10.29
2023-02-24T01:01:30.708Z,10.28
2023-02-24T01:05:36.403Z,10.29
2023-02-24T01:09:39.506Z,10.26
2023-02-24T01:13:41.043Z,10.24
2023-02-24T01:17:42.614Z,10.22
2023-02-24T01:21:46.149Z,10.18
2023-02-24T01:25:47.791Z,10.18
2023-02-24T01:29:49.635Z,10.13
2023-02-24T01:33:52.096Z,10.07
2023-02-24T01:37:53.609Z,9.99
2023-02-24T01:41:55.208Z,9.98
2023-02-24T01:45:56.840Z,9.92
2023-02-24T01:49:58.510Z,9.88
2023-02-24T01:54:01.789Z,9.89
2023-02-24T01:58:13.347Z,9.91
2023-02-24T02:02:15.870Z,9.91
2023-02-24T02:06:17.787Z,9.88
2023-02-24T02:10:20.357Z,9.88
2023-02-24T02:14:25.517Z,9.83
2023-02-24T02:18:47.695Z,9.80
2023-02-24T02:23:17.622Z,9.78
2023-02-24T02:27:32.806Z,9.77
2023-02-24T02:32:10.799Z,9.74
2023-02-24T02:36:22.672Z,9.70
2023-02-24T02:40:33.026Z,9.70
2023-02-24T02:44:40.560Z,9.63
2023-02-24T02:48:57.569Z,9.58
2023-02-24T02:53:12.174Z,9.45
2023-02-24T02:57:23.044Z,9.40
2023-02-24T03:01:30.620Z,9.38
2023-02-24T03:05:44.015Z,9.34
2023-02-24T03:09:51.561Z,9.31
2023-02-24T03:13:57.094Z,9.31
2023-02-24T03:18:10.172Z,9.32
2023-02-24T03:22:21.862Z,9.32
2023-02-24T03:26:41.681Z,9.37
2023-02-24T03:30:50.516Z,9.35
2023-02-24T03:35:16.965Z,9.34
2023-02-24T03:39:20.424Z,9.34
2023-02-24T03:43:34.264Z,9.31
2023-02-24T03:47:37.841Z,9.31
2023-02-24T03:51:44.724Z,9.34
2023-02-24T03:56:10.799Z,9.37
2023-02-24T04:00:33.967Z,9.38
2023-02-24T04:04:48.306Z,9.41
2023-02-24T04:09:19.990Z,9.49
2023-02-24T04:13:35.112Z,9.49
2023-02-24T04:18:01.026Z,9.53
2023-02-24T04:22:10.601Z,9.56
2023-02-24T04:26:16.250Z,9.56
2023-02-24T04:30:20.215Z,9.60
2023-02-24T04:34:21.743Z,9.58
2023-02-24T04:38:24.387Z,9.55
2023-02-24T04:42:26.515Z,9.52
2023-02-24T04:46:29.766Z,9.55
2023-02-24T04:50:34.747Z,9.53
2023-02-24T04:54:36.319Z,9.50
2023-02-24T04:58:39.914Z,9.49
2023-02-24T05:02:41.405Z,9.53
2023-02-24T05:06:44.465Z,9.53
2023-02-24T05:10:47.094Z,9.53
2023-02-24T05:14:49.427Z,9.53
2023-02-24T05:19:11.203Z,9.52
2023-02-24T05:23:12.847Z,9.53
2023-02-24T05:27:17.155Z,9.53
2023-02-24T05:31:26.452Z,9.50
2023-02-24T05:35:28.412Z,9.52
2023-02-24T05:39:29.954Z,9.50
2023-02-24T05:43:31.475Z,9.49
2023-02-24T05:47:32.998Z,9.49
2023-02-24T05:51:36.504Z,9.48
2023-02-24T05:55:38.006Z,9.45
2023-02-24T05:59:43.240Z,9.41
2023-02-24T06:03:49.220Z,9.48
2023-02-24T06:07:56.661Z,9.49
2023-02-24T06:11:58.573Z,9.45
2023-02-24T06:16:00.718Z,9.48
2023-02-24T06:20:13.051Z,9.44
2023-02-24T06:24:18.534Z,9.45
2023-02-24T06:28:20.110Z,9.45
2023-02-24T06:32:24.355Z,9.45
2023-02-24T06:36:26.154Z,9.44
2023-02-24T06:40:27.742Z,9.41
2023-02-24T06:44:30.750Z,9.38
2023-02-24T06:48:33.871Z,9.35
2023-02-24T06:52:36.350Z,9.40
2023-02-24T06:56:39.030Z,9.41
2023-02-24T07:00:40.625Z,9.41
2023-02-24T07:04:44.741Z,9.31
2023-02-24T07:08:47.838Z,9.38
2023-02-24T07:12:51.044Z,9.41
2023-02-24T07:16:58.025Z,9.41
2023-02-24T07:21:04.990Z,9.44
2023-02-24T07:25:07.203Z,9.52
2023-02-24T07:29:11.353Z,9.53
2023-02-24T07:33:14.236Z,9.59
2023-02-24T07:37:16.682Z,9.63
2023-02-24T07:41:22.529Z,9.67
2023-02-24T07:45:24.811Z,9.71
2023-02-24T07:49:29.908Z,9.71
2023-02-24T07:53:31.507Z,9.73
2023-02-24T07:57:33.317Z,9.78
2023-02-24T08:01:40.598Z,9.81
2023-02-24T08:05:43.663Z,9.80
2023-02-24T08:09:45.462Z,9.86
2023-02-24T08:13:47.089Z,9.83
2023-02-24T08:17:48.662Z,9.89
2023-02-24T08:21:52.785Z,9.91
2023-02-24T08:25:54.402Z,9.92
2023-02-24T08:29:59.979Z,9.93
2023-02-24T08:34:01.646Z,9.95
2023-02-24T08:38:09.937Z,9.96
2023-02-24T08:42:14.235Z,10.02
2023-02-24T08:46:25.617Z,10.11
2023-02-24T08:50:31.163Z,10.18
2023-02-24T08:54:33.205Z,10.26
2023-02-24T08:58:39.718Z,10.42
2023-02-24T09:02:42.520Z,10.57
2023-02-24T09:06:50.312Z,10.72
2023-02-24T09:10:52.818Z,10.76
2023-02-24T09:15:04.599Z,10.84
2023-02-24T09:19:24.413Z,10.95
2023-02-24T09:23:45.827Z,11.01
2023-02-24T09:27:52.554Z,11.06
2023-02-24T09:32:04.420Z,11.13
2023-02-24T09:36:20.345Z,11.11
2023-02-24T09:40:22.193Z,11.09
2023-02-24T09:44:29.516Z,11.16
2023-02-24T09:48:47.738Z,11.17
2023-02-24T09:53:02.849Z,11.16
2023-02-24T09:57:19.238Z,11.02
2023-02-24T10:01:42.899Z,11.19
2023-02-24T10:06:12.247Z,11.35
2023-02-24T10:10:19.667Z,11.57
2023-02-24T10:14:52.981Z,11.62
2023-02-24T10:19:16.577Z,11.81
2023-02-24T10:23:32.938Z,11.90
2023-02-24T10:27:45.770Z,11.96
2023-02-24T10:31:57.767Z,12.03
2023-02-24T10:36:12.770Z,12.07
2023-02-24T10:40:26.216Z,12.15
2023-02-24T10:44:36.477Z,12.16
2023-02-24T10:48:42.426Z,12.21
2023-02-24T10:53:11.177Z,12.23
2023-02-24T10:57:36.326Z,12.43
2023-02-24T11:01:43.029Z,12.54
2023-02-24T11:06:18.705Z,12.71
2023-02-24T11:10:26.137Z,12.87
2023-02-24T11:14:46.561Z,12.87
2023-02-24T11:18:50.121Z,12.91
2023-02-24T11:22:55.713Z,12.85
2023-02-24T11:26:57.599Z,12.95
2023-02-24T11:31:36.870Z,12.84
2023-02-24T11:36:00.635Z,12.77
2023-02-24T11:40:38.826Z,12.74
2023-02-24T11:44:52.610Z,12.77
2023-02-24T11:48:58.478Z,12.85
2023-02-24T11:53:04.882Z,12.94
2023-02-24T11:57:13.821Z,12.88
2023-02-24T12:01:24.279Z,13.13
2023-02-24T12:05:50.083Z,13.31
2023-02-24T12:10:15.565Z,13.35
2023-02-24T12:14:30.154Z,13.27
2023-02-24T12:18:35.655Z,13.17
2023-02-24T12:22:50.530Z,13.14
2023-02-24T12:27:25.522Z,13.03
2023-02-24T12:32:05.900Z,12.98
2023-02-24T12:36:45.377Z,13.03
2023-02-24T12:41:24.385Z,13.07
2023-02-24T12:46:24.272Z,13.13
2023-02-24T12:50:47.079Z,13.19
2023-02-24T12:55:00.810Z,13.31
2023-02-24T12:59:06.273Z,13.17
2023-02-24T13:03:13.217Z,13.13
2023-02-24T13:07:38.650Z,13.13
2023-02-24T13:11:58.804Z,13.16
2023-02-24T13:16:39.180Z,13.21
2023-02-24T13:20:51.152Z,13.09
2023-02-24T13:25:10.342Z,13.29
2023-02-24T13:29:21.607Z,13.66
2023-02-24T13:33:32.209Z,13.99
2023-02-24T13:37:48.507Z,13.99
2023-02-24T13:42:04.658Z,14.02
2023-02-24T13:46:32.366Z,13.94
2023-02-24T13:50:54.487Z,13.96
2023-02-24T13:55:23.523Z,14.01
2023-02-24T13:59:47.215Z,13.94
2023-02-24T14:04:17.297Z,13.94
2023-02-24T14:08:31.994Z,14.04
2023-02-24T14:12:42.704Z,14.09
2023-02-24T14:16:52.505Z,14.16
2023-02-24T14:20:58.410Z,14.27
2023-02-24T14:25:10.049Z,14.24
2023-02-24T14:29:17.749Z,14.19
2023-02-24T14:33:29.181Z,14.12
2023-02-24T14:37:31.770Z,14.09
2023-02-24T14:41:37.023Z,13.94
2023-02-24T14:45:49.271Z,13.84
2023-02-24T14:50:04.938Z,13.83
2023-02-24T14:54:30.892Z,14.01
2023-02-24T14:58:48.113Z,13.93
2023-02-24T15:03:19.894Z,13.75
2023-02-24T15:07:32.301Z,13.72
2023-02-24T15:11:40.275Z,13.66
2023-02-24T15:15:42.765Z,13.59
2023-02-24T15:19:47.258Z,13.51
2023-02-24T15:24:01.432Z,13.59
2023-02-24T15:28:04.465Z,13.62
2023-02-24T15:32:15.730Z,13.50
2023-02-24T15:36:28.616Z,13.29
2023-02-24T15:40:33.179Z,13.19
2023-02-24T15:44:36.500Z,13.04
2023-02-24T15:48:43.510Z,12.94
2023-02-24T15:52:50.881Z,12.76
2023-02-24T15:56:55.738Z,12.63
2023-02-24T16:01:03.215Z,12.58
2023-02-24T16:05:08.467Z,12.49
2023-02-24T16:09:16.128Z,12.37
2023-02-24T16:13:23.104Z,12.31
2023-02-24T16:17:34.829Z,12.22
2023-02-24T16:21:39.876Z,12.15
2023-02-24T16:25:44.536Z,12.05
2023-02-24T16:29:55.893Z,12.00
2023-02-24T16:34:00.258Z,11.88
2023-02-24T16:38:05.606Z,11.82
2023-02-24T16:42:11.178Z,11.74
2023-02-24T16:46:19.384Z,11.69
2023-02-24T16:50:27.573Z,11.66
2023-02-24T16:54:30.857Z,11.56
2023-02-24T16:58:32.952Z,11.49
2023-02-24T17:02:35.128Z,11.44
2023-02-24T17:06:49.816Z,11.41
2023-02-24T17:10:54.331Z,11.35
2023-02-24T17:14:58.619Z,11.33
2023-02-24T17:19:00.640Z,11.24
2023-02-24T17:23:12.758Z,11.20
2023-02-24T17:27:14.324Z,11.21
2023-02-24T17:31:15.911Z,11.13
2023-02-24T17:35:18.339Z,11.06
2023-02-24T17:39:19.895Z,11.09
2023-02-24T17:43:21.571Z,11.06
2023-02-24T17:47:23.146Z,11.05
2023-02-24T17:51:24.731Z,11.02
2023-02-24T17:55:26.409Z,11.02
2023-02-24T17:59:28.089Z,11.01
2023-02-24T18:03:30.366Z,11.05
2023-02-24T18:07:32.125Z,11.03
2023-02-24T18:11:33.749Z,11.02
2023-02-24T18:15:38.495Z,10.94
2023-02-24T18:19:40.454Z,10.94
2023-02-24T18:23:42.317Z,10.91
2023-02-24T18:27:43.922Z,10.91
2023-02-24T18:31:45.705Z,10.84
2023-02-24T18:35:47.397Z,10.81
2023-02-24T18:39:48.956Z,10.72
2023-02-24T18:43:53.176Z,10.68
2023-02-24T18:47:54.765Z,10.66
2023-02-24T18:51:56.424Z,10.66
2023-02-24T18:56:05.206Z,10.63
2023-02-24T19:00:08.528Z,10.57
2023-02-24T19:04:11.842Z,10.49
2023-02-24T19:08:14.639Z,10.35
2023-02-24T19:12:17.311Z,10.26
2023-02-24T19:16:19.094Z,10.20
2023-02-24T19:20:21.029Z,10.14
2023-02-24T19:24:22.580Z,10.07
2023-02-24T19:28:24.243Z,9.99
2023-02-24T19:32:25.932Z,9.92
2023-02-24T19:36:29.180Z,9.86
2023-02-24T19:40:30.693Z,9.73
2023-02-24T19:44:33.166Z,9.68
2023-02-24T19:48:35.269Z,9.52
2023-02-24T19:52:36.925Z,9.38
2023-02-24T19:56:38.428Z,9.17
2023-02-24T20:00:39.986Z,8.96
2023-02-24T20:04:41.621Z,8.73
2023-02-24T20:08:43.298Z,8.52
2023-02-24T20:12:45.002Z,8.43
2023-02-24T20:16:47.259Z,8.36
2023-02-24T20:20:48.916Z,8.40
2023-02-24T20:24:50.559Z,8.39
2023-02-24T20:28:52.218Z,8.28
2023-02-24T20:32:53.909Z,8.25
2023-02-24T20:36:55.762Z,8.25
2023-02-24T20:41:00.246Z,8.25
2023-02-24T20:45:02.465Z,8.32
2023-02-24T20:49:06.959Z,8.34
2023-02-24T20:53:08.550Z,8.37
2023-02-24T20:57:10.188Z,8.36
2023-02-24T21:01:11.948Z,8.37
2023-02-24T21:05:22.466Z,8.40
2023-02-24T21:09:24.029Z,8.40
2023-02-24T21:13:25.761Z,8.39
2023-02-24T21:17:28.728Z,8.43
2023-02-24T21:21:31.255Z,8.45
2023-02-24T21:25:32.822Z,8.43
2023-02-24T21:29:34.512Z,8.39
2023-02-24T21:33:36.162Z,8.32
2023-02-24T21:37:37.812Z,8.40
2023-02-24T21:41:39.407Z,8.39
2023-02-24T21:45:41.334Z,8.32
2023-02-24T21:49:43.996Z,8.31
2023-02-24T21:53:47.860Z,8.36
2023-02-24T21:57:49.460Z,8.31
2023-02-24T22:01:51.240Z,8.18
2023-02-24T22:05:54.310Z,8.07
2023-02-24T22:09:55.927Z,8.09
2023-02-24T22:13:57.512Z,8.09
2023-02-24T22:17:59.031Z,8.02
2023-02-24T22:22:00.617Z,7.99
2023-02-24T22:26:07.113Z,7.96
2023-02-24T22:30:10.443Z,7.96
2023-02-24T22:34:13.128Z,7.92
2023-02-24T22:38:14.788Z,7.89
2023-02-24T22:42:16.389Z,7.89
2023-02-24T22:46:21.961Z,7.91
2023-02-24T22:50:23.682Z,7.92
2023-02-24T22:54:25.254Z,7.92
2023-02-24T22:58:27.494Z,7.94
2023-02-24T23:02:29.016Z,7.99
2023-02-24T23:06:31.006Z,7.96
2023-02-24T23:10:33.916Z,8.00
2023-02-24T23:14:36.023Z,7.95
2023-02-24T23:18:38.093Z,7.96
2023-02-24T23:22:40.538Z,7.99
2023-02-24T23:26:51.803Z,7.96
2023-02-24T23:30:54.483Z,7.94
2023-02-24T23:34:56.170Z,7.91
2023-02-24T23:38:57.908Z,7.89
2023-02-24T23:43:00.243Z,7.84
2023-02-24T23:47:01.842Z,7.76
2023-02-24T23:51:04.667Z,7.73
2023-02-24T23:55:06.808Z,7.70
2023-02-24T23:59:08.776Z,7.69
